This is the latest recevied weather packets stored in our database for station/object DF7ER-12. If no packets are shown the sender has not sent any weather packets the latest 10 day(s).
| Time | Temp. | Humidity | Pressure | Rain* | Wind** | Luminosity | Snow |
|---|---|---|---|---|---|---|---|
| 1777287068 | 19.44° C | 52% | 1013.4 hPa | - | - | - | - |
| 1777286768 | 18.33° C | 53% | 1013.4 hPa | - | - | - | - |
| 1777286468 | 17.78° C | 52% | 1013.4 hPa | - | - | - | - |
| 1777286169 | 17.78° C | 53% | 1013.5 hPa | - | - | - | - |
| 1777285868 | 18.89° C | 52% | 1013.6 hPa | - | - | - | - |
| 1777285568 | 16.67° C | 54% | 1013.6 hPa | - | - | - | - |
| 1777285268 | 17.22° C | 54% | 1013.7 hPa | - | - | - | - |
| 1777284968 | 18.89° C | 53% | 1013.8 hPa | - | - | - | - |
| 1777284669 | 18.33° C | 55% | 1013.6 hPa | - | - | - | - |
| 1777284368 | 18.33° C | 54% | 1013.8 hPa | - | - | - | - |
| 1777284068 | 18.33° C | 55% | 1013.9 hPa | - | - | - | - |
| 1777283768 | 16.67° C | 56% | 1014 hPa | - | - | - | - |
| 1777283468 | 16.67° C | 57% | 1014 hPa | - | - | - | - |
| 1777283169 | 15.56° C | 57% | 1013.9 hPa | - | - | - | - |
| 1777282868 | 16.11° C | 57% | 1014 hPa | - | - | - | - |
| 1777282569 | 16.11° C | 57% | 1014 hPa | - | - | - | - |
| 1777282268 | 15.56° C | 58% | 1014.1 hPa | - | - | - | - |
| 1777281968 | 15.56° C | 59% | 1014.1 hPa | - | - | - | - |
| 1777281699 | 17.22° C | 57% | 1014.3 hPa | - | - | - | - |
| 1777281368 | 15.56° C | 60% | 1014.2 hPa | - | - | - | - |
| 1777281081 | 15.56° C | 60% | 1014.3 hPa | - | - | - | - |
| 1777280768 | 17.22° C | 57% | 1014.4 hPa | - | - | - | - |
| 1777280490 | 16.67° C | 58% | 1014.4 hPa | - | - | - | - |
| 1777280169 | 16.67° C | 59% | 1014.4 hPa | - | - | - | - |
| 1777279868 | 13.89° C | 61% | 1014.3 hPa | - | - | - | - |
* Rain since midnight (hover to see other rain measurements)
** Current wind speed in m/s (hover to see current wind gust speed)